sensor_id;sensor_type;location;lat;lon;timestamp;temperature;humidity
18141;DHT22;9196;49.194;12.526;2024-02-14T00:02:02;2.70;99.90
18141;DHT22;9196;49.194;12.526;2024-02-14T00:04:31;2.70;99.90
18141;DHT22;9196;49.194;12.526;2024-02-14T00:06:58;2.70;99.90
18141;DHT22;9196;49.194;12.526;2024-02-14T00:09:25;2.70;99.90
18141;DHT22;9196;49.194;12.526;2024-02-14T00:11:52;2.70;99.90
18141;DHT22;9196;49.194;12.526;2024-02-14T00:14:20;2.80;99.90
18141;DHT22;9196;49.194;12.526;2024-02-14T00:16:47;2.80;99.90
18141;DHT22;9196;49.194;12.526;2024-02-14T00:19:14;2.70;99.90
18141;DHT22;9196;49.194;12.526;2024-02-14T00:21:41;2.70;99.90
18141;DHT22;9196;49.194;12.526;2024-02-14T00:24:08;2.60;99.90
18141;DHT22;9196;49.194;12.526;2024-02-14T00:26:34;2.60;99.90
18141;DHT22;9196;49.194;12.526;2024-02-14T00:29:02;2.60;99.90
18141;DHT22;9196;49.194;12.526;2024-02-14T00:31:30;2.60;99.90
18141;DHT22;9196;49.194;12.526;2024-02-14T00:33:57;2.50;99.90
18141;DHT22;9196;49.194;12.526;2024-02-14T00:36:24;2.50;99.90
18141;DHT22;9196;49.194;12.526;2024-02-14T00:38:51;2.50;99.90
18141;DHT22;9196;49.194;12.526;2024-02-14T00:41:18;2.40;99.90
18141;DHT22;9196;49.194;12.526;2024-02-14T00:43:45;2.40;99.90
18141;DHT22;9196;49.194;12.526;2024-02-14T00:46:15;2.40;99.90
18141;DHT22;9196;49.194;12.526;2024-02-14T00:48:44;2.40;99.90
18141;DHT22;9196;49.194;12.526;2024-02-14T00:51:11;2.20;99.90
18141;DHT22;9196;49.194;12.526;2024-02-14T00:53:38;2.30;99.90
18141;DHT22;9196;49.194;12.526;2024-02-14T00:56:05;2.30;99.90
18141;DHT22;9196;49.194;12.526;2024-02-14T00:58:32;2.20;99.90
18141;DHT22;9196;49.194;12.526;2024-02-14T01:00:59;2.20;99.90
18141;DHT22;9196;49.194;12.526;2024-02-14T01:03:25;2.20;99.90
18141;DHT22;9196;49.194;12.526;2024-02-14T01:05:54;2.30;99.90
18141;DHT22;9196;49.194;12.526;2024-02-14T01:08:21;2.30;99.90
18141;DHT22;9196;49.194;12.526;2024-02-14T01:10:47;2.30;99.90
18141;DHT22;9196;49.194;12.526;2024-02-14T01:13:17;2.30;99.90
18141;DHT22;9196;49.194;12.526;2024-02-14T01:15:44;2.30;99.90
18141;DHT22;9196;49.194;12.526;2024-02-14T01:18:11;2.20;99.90
18141;DHT22;9196;49.194;12.526;2024-02-14T01:20:37;2.10;99.90
18141;DHT22;9196;49.194;12.526;2024-02-14T01:23:06;2.20;99.90
18141;DHT22;9196;49.194;12.526;2024-02-14T01:25:32;2.20;99.90
18141;DHT22;9196;49.194;12.526;2024-02-14T01:27:59;2.30;99.90
18141;DHT22;9196;49.194;12.526;2024-02-14T01:30:26;2.30;99.90
18141;DHT22;9196;49.194;12.526;2024-02-14T01:32:53;2.10;99.90
18141;DHT22;9196;49.194;12.526;2024-02-14T01:35:20;2.20;99.90
18141;DHT22;9196;49.194;12.526;2024-02-14T01:37:48;2.20;99.90
18141;DHT22;9196;49.194;12.526;2024-02-14T01:40:16;2.20;99.90
18141;DHT22;9196;49.194;12.526;2024-02-14T01:42:43;2.20;99.90
18141;DHT22;9196;49.194;12.526;2024-02-14T01:45:10;2.20;99.90
18141;DHT22;9196;49.194;12.526;2024-02-14T01:47:37;2.30;99.90
18141;DHT22;9196;49.194;12.526;2024-02-14T01:50:08;2.20;99.90
18141;DHT22;9196;49.194;12.526;2024-02-14T01:52:37;2.20;99.90
18141;DHT22;9196;49.194;12.526;2024-02-14T01:55:05;2.20;99.90
18141;DHT22;9196;49.194;12.526;2024-02-14T01:57:34;2.10;99.90
18141;DHT22;9196;49.194;12.526;2024-02-14T02:00:04;2.10;99.90
18141;DHT22;9196;49.194;12.526;2024-02-14T02:02:34;2.20;99.90
18141;DHT22;9196;49.194;12.526;2024-02-14T02:05:02;2.10;99.90
18141;DHT22;9196;49.194;12.526;2024-02-14T02:07:29;2.10;99.90
18141;DHT22;9196;49.194;12.526;2024-02-14T02:09:55;2.00;99.90
18141;DHT22;9196;49.194;12.526;2024-02-14T02:12:23;2.00;99.90
18141;DHT22;9196;49.194;12.526;2024-02-14T02:14:52;2.10;99.90
18141;DHT22;9196;49.194;12.526;2024-02-14T02:17:18;2.00;99.90
18141;DHT22;9196;49.194;12.526;2024-02-14T02:19:46;2.10;99.90
18141;DHT22;9196;49.194;12.526;2024-02-14T02:22:13;2.10;99.90
18141;DHT22;9196;49.194;12.526;2024-02-14T02:24:41;2.10;99.90
18141;DHT22;9196;49.194;12.526;2024-02-14T02:27:08;2.10;99.90
18141;DHT22;9196;49.194;12.526;2024-02-14T02:29:35;2.10;99.90
18141;DHT22;9196;49.194;12.526;2024-02-14T02:32:03;2.10;99.90
18141;DHT22;9196;49.194;12.526;2024-02-14T02:34:31;2.10;99.90
18141;DHT22;9196;49.194;12.526;2024-02-14T02:36:58;2.10;99.90
18141;DHT22;9196;49.194;12.526;2024-02-14T02:39:25;2.00;99.90
18141;DHT22;9196;49.194;12.526;2024-02-14T02:41:53;2.00;99.90
18141;DHT22;9196;49.194;12.526;2024-02-14T02:44:22;2.10;99.90
18141;DHT22;9196;49.194;12.526;2024-02-14T02:46:49;2.10;99.90
18141;DHT22;9196;49.194;12.526;2024-02-14T02:49:16;2.10;99.90
18141;DHT22;9196;49.194;12.526;2024-02-14T02:51:43;2.20;99.90
18141;DHT22;9196;49.194;12.526;2024-02-14T02:54:09;2.10;99.90
18141;DHT22;9196;49.194;12.526;2024-02-14T02:56:37;2.10;99.90
18141;DHT22;9196;49.194;12.526;2024-02-14T02:59:05;2.10;99.90
18141;DHT22;9196;49.194;12.526;2024-02-14T03:01:35;2.10;99.90
18141;DHT22;9196;49.194;12.526;2024-02-14T03:04:02;2.10;99.90
18141;DHT22;9196;49.194;12.526;2024-02-14T03:06:30;2.10;99.90
18141;DHT22;9196;49.194;12.526;2024-02-14T03:08:57;2.10;99.90
18141;DHT22;9196;49.194;12.526;2024-02-14T03:11:24;2.10;99.90
18141;DHT22;9196;49.194;12.526;2024-02-14T03:13:52;2.10;99.90
18141;DHT22;9196;49.194;12.526;2024-02-14T03:16:20;2.00;99.90
18141;DHT22;9196;49.194;12.526;2024-02-14T03:18:50;1.90;99.90
18141;DHT22;9196;49.194;12.526;2024-02-14T03:21:17;1.80;99.90
18141;DHT22;9196;49.194;12.526;2024-02-14T03:23:44;1.80;99.90
18141;DHT22;9196;49.194;12.526;2024-02-14T03:26:11;1.70;99.90
18141;DHT22;9196;49.194;12.526;2024-02-14T03:28:38;1.70;99.90
18141;DHT22;9196;49.194;12.526;2024-02-14T03:31:05;1.70;99.90
18141;DHT22;9196;49.194;12.526;2024-02-14T03:33:33;1.70;99.90
18141;DHT22;9196;49.194;12.526;2024-02-14T03:36:00;1.70;99.90
18141;DHT22;9196;49.194;12.526;2024-02-14T03:38:28;1.80;99.90
18141;DHT22;9196;49.194;12.526;2024-02-14T03:40:56;1.90;99.90
18141;DHT22;9196;49.194;12.526;2024-02-14T03:43:23;1.80;99.90
18141;DHT22;9196;49.194;12.526;2024-02-14T03:45:50;1.80;99.90
18141;DHT22;9196;49.194;12.526;2024-02-14T03:48:17;1.80;99.90
18141;DHT22;9196;49.194;12.526;2024-02-14T03:50:45;1.80;99.90
18141;DHT22;9196;49.194;12.526;2024-02-14T03:53:12;1.80;99.90
18141;DHT22;9196;49.194;12.526;2024-02-14T03:55:40;1.80;99.90
18141;DHT22;9196;49.194;12.526;2024-02-14T03:58:07;1.70;99.90
18141;DHT22;9196;49.194;12.526;2024-02-14T04:00:34;1.80;99.90
18141;DHT22;9196;49.194;12.526;2024-02-14T04:03:01;1.80;99.90
18141;DHT22;9196;49.194;12.526;2024-02-14T04:05:28;1.70;99.90
18141;DHT22;9196;49.194;12.526;2024-02-14T04:07:56;1.70;99.90
18141;DHT22;9196;49.194;12.526;2024-02-14T04:10:23;1.70;99.90
18141;DHT22;9196;49.194;12.526;2024-02-14T04:12:50;1.70;99.90
18141;DHT22;9196;49.194;12.526;2024-02-14T04:15:17;1.70;99.90
18141;DHT22;9196;49.194;12.526;2024-02-14T04:17:44;1.70;99.90
18141;DHT22;9196;49.194;12.526;2024-02-14T04:20:11;1.60;99.90
18141;DHT22;9196;49.194;12.526;2024-02-14T04:22:38;1.60;99.90
18141;DHT22;9196;49.194;12.526;2024-02-14T04:25:07;1.50;99.90
18141;DHT22;9196;49.194;12.526;2024-02-14T04:27:34;1.50;99.90
18141;DHT22;9196;49.194;12.526;2024-02-14T04:30:01;1.50;99.90
18141;DHT22;9196;49.194;12.526;2024-02-14T04:32:28;1.60;99.90
18141;DHT22;9196;49.194;12.526;2024-02-14T04:34:55;1.70;99.90
18141;DHT22;9196;49.194;12.526;2024-02-14T04:37:23;1.70;99.90
18141;DHT22;9196;49.194;12.526;2024-02-14T04:39:50;1.70;99.90
18141;DHT22;9196;49.194;12.526;2024-02-14T04:42:18;1.70;99.90
18141;DHT22;9196;49.194;12.526;2024-02-14T04:44:45;1.70;99.90
18141;DHT22;9196;49.194;12.526;2024-02-14T04:47:12;1.70;99.90
18141;DHT22;9196;49.194;12.526;2024-02-14T04:49:40;1.70;99.90
18141;DHT22;9196;49.194;12.526;2024-02-14T04:52:08;1.70;99.90
18141;DHT22;9196;49.194;12.526;2024-02-14T04:54:34;1.60;99.90
18141;DHT22;9196;49.194;12.526;2024-02-14T04:57:01;1.50;99.90
18141;DHT22;9196;49.194;12.526;2024-02-14T04:59:31;1.60;99.90
18141;DHT22;9196;49.194;12.526;2024-02-14T05:01:58;1.60;99.90
18141;DHT22;9196;49.194;12.526;2024-02-14T05:04:24;1.60;99.90
18141;DHT22;9196;49.194;12.526;2024-02-14T05:06:51;1.60;99.90
18141;DHT22;9196;49.194;12.526;2024-02-14T05:09:18;1.60;99.90
18141;DHT22;9196;49.194;12.526;2024-02-14T05:11:45;1.60;99.90
18141;DHT22;9196;49.194;12.526;2024-02-14T05:14:12;1.50;99.90
18141;DHT22;9196;49.194;12.526;2024-02-14T05:16:40;1.50;99.90
18141;DHT22;9196;49.194;12.526;2024-02-14T05:19:07;1.60;99.90
18141;DHT22;9196;49.194;12.526;2024-02-14T05:21:35;1.50;99.90
18141;DHT22;9196;49.194;12.526;2024-02-14T05:24:02;1.60;99.90
18141;DHT22;9196;49.194;12.526;2024-02-14T05:26:29;1.60;99.90
18141;DHT22;9196;49.194;12.526;2024-02-14T05:28:55;1.60;99.90
18141;DHT22;9196;49.194;12.526;2024-02-14T05:31:22;1.60;99.90
18141;DHT22;9196;49.194;12.526;2024-02-14T05:33:51;1.60;99.90
18141;DHT22;9196;49.194;12.526;2024-02-14T05:36:18;1.60;99.90
18141;DHT22;9196;49.194;12.526;2024-02-14T05:38:45;1.60;99.90
18141;DHT22;9196;49.194;12.526;2024-02-14T05:41:12;1.60;99.90
18141;DHT22;9196;49.194;12.526;2024-02-14T05:43:39;1.70;99.90
18141;DHT22;9196;49.194;12.526;2024-02-14T05:46:06;1.80;99.90
18141;DHT22;9196;49.194;12.526;2024-02-14T05:48:34;1.80;99.90
18141;DHT22;9196;49.194;12.526;2024-02-14T05:51:03;1.90;99.90
18141;DHT22;9196;49.194;12.526;2024-02-14T05:53:30;1.80;99.90
18141;DHT22;9196;49.194;12.526;2024-02-14T05:55:57;1.90;99.90
18141;DHT22;9196;49.194;12.526;2024-02-14T05:58:23;1.90;99.90
18141;DHT22;9196;49.194;12.526;2024-02-14T06:00:54;1.90;99.90
18141;DHT22;9196;49.194;12.526;2024-02-14T06:03:21;1.90;99.90
18141;DHT22;9196;49.194;12.526;2024-02-14T06:05:48;1.90;99.90
18141;DHT22;9196;49.194;12.526;2024-02-14T06:08:16;1.80;99.90
18141;DHT22;9196;49.194;12.526;2024-02-14T06:10:43;1.90;99.90
18141;DHT22;9196;49.194;12.526;2024-02-14T06:13:09;2.10;99.90
18141;DHT22;9196;49.194;12.526;2024-02-14T06:15:36;2.30;99.90
18141;DHT22;9196;49.194;12.526;2024-02-14T06:18:03;2.40;99.90
18141;DHT22;9196;49.194;12.526;2024-02-14T06:20:30;2.40;99.90
18141;DHT22;9196;49.194;12.526;2024-02-14T06:22:57;2.50;99.90
18141;DHT22;9196;49.194;12.526;2024-02-14T06:25:26;2.70;99.90
18141;DHT22;9196;49.194;12.526;2024-02-14T06:27:53;2.80;99.90
18141;DHT22;9196;49.194;12.526;2024-02-14T06:30:20;3.00;99.90
18141;DHT22;9196;49.194;12.526;2024-02-14T06:32:47;3.10;99.90
18141;DHT22;9196;49.194;12.526;2024-02-14T06:35:14;3.10;99.90
18141;DHT22;9196;49.194;12.526;2024-02-14T06:37:44;3.10;99.90
18141;DHT22;9196;49.194;12.526;2024-02-14T06:40:12;3.00;99.90
18141;DHT22;9196;49.194;12.526;2024-02-14T06:42:40;3.00;99.90
18141;DHT22;9196;49.194;12.526;2024-02-14T06:45:08;2.90;99.90
18141;DHT22;9196;49.194;12.526;2024-02-14T06:47:34;2.80;99.90
18141;DHT22;9196;49.194;12.526;2024-02-14T06:50:01;2.60;99.90
18141;DHT22;9196;49.194;12.526;2024-02-14T06:52:28;2.70;99.90
18141;DHT22;9196;49.194;12.526;2024-02-14T06:54:55;2.70;99.90
18141;DHT22;9196;49.194;12.526;2024-02-14T06:57:22;2.70;99.90
18141;DHT22;9196;49.194;12.526;2024-02-14T06:59:50;2.70;99.90
18141;DHT22;9196;49.194;12.526;2024-02-14T07:02:17;2.70;99.90
18141;DHT22;9196;49.194;12.526;2024-02-14T07:04:44;2.80;99.90
18141;DHT22;9196;49.194;12.526;2024-02-14T07:07:11;2.90;99.90
18141;DHT22;9196;49.194;12.526;2024-02-14T07:09:38;3.00;99.90
18141;DHT22;9196;49.194;12.526;2024-02-14T07:12:05;3.10;99.90
18141;DHT22;9196;49.194;12.526;2024-02-14T07:14:32;3.30;99.90
18141;DHT22;9196;49.194;12.526;2024-02-14T07:17:00;3.30;99.90
18141;DHT22;9196;49.194;12.526;2024-02-14T07:19:28;3.40;99.90
18141;DHT22;9196;49.194;12.526;2024-02-14T07:21:55;3.50;99.90
18141;DHT22;9196;49.194;12.526;2024-02-14T07:24:22;3.60;99.90
18141;DHT22;9196;49.194;12.526;2024-02-14T07:26:49;3.60;99.90
18141;DHT22;9196;49.194;12.526;2024-02-14T07:29:16;3.50;99.90
18141;DHT22;9196;49.194;12.526;2024-02-14T07:31:42;3.40;99.90
18141;DHT22;9196;49.194;12.526;2024-02-14T07:34:11;3.30;99.90
18141;DHT22;9196;49.194;12.526;2024-02-14T07:36:38;3.20;99.90
18141;DHT22;9196;49.194;12.526;2024-02-14T07:39:07;3.10;99.90
18141;DHT22;9196;49.194;12.526;2024-02-14T07:41:34;3.10;99.90
18141;DHT22;9196;49.194;12.526;2024-02-14T07:44:01;3.10;99.90
18141;DHT22;9196;49.194;12.526;2024-02-14T07:46:27;3.20;99.90
18141;DHT22;9196;49.194;12.526;2024-02-14T07:48:55;3.20;99.90
18141;DHT22;9196;49.194;12.526;2024-02-14T07:51:24;3.30;99.90
18141;DHT22;9196;49.194;12.526;2024-02-14T07:53:53;3.30;99.90
18141;DHT22;9196;49.194;12.526;2024-02-14T07:56:20;3.30;99.90
18141;DHT22;9196;49.194;12.526;2024-02-14T07:58:47;3.20;99.90
18141;DHT22;9196;49.194;12.526;2024-02-14T08:01:15;3.20;99.90
18141;DHT22;9196;49.194;12.526;2024-02-14T08:03:42;3.20;99.90
18141;DHT22;9196;49.194;12.526;2024-02-14T08:06:08;3.20;99.90
18141;DHT22;9196;49.194;12.526;2024-02-14T08:08:36;3.10;99.90
18141;DHT22;9196;49.194;12.526;2024-02-14T08:11:04;3.10;99.90
18141;DHT22;9196;49.194;12.526;2024-02-14T08:13:30;3.10;99.90
18141;DHT22;9196;49.194;12.526;2024-02-14T08:15:57;3.10;99.90
18141;DHT22;9196;49.194;12.526;2024-02-14T08:18:25;3.20;99.90
18141;DHT22;9196;49.194;12.526;2024-02-14T08:20:52;3.30;99.90
18141;DHT22;9196;49.194;12.526;2024-02-14T08:23:20;3.40;99.90
18141;DHT22;9196;49.194;12.526;2024-02-14T08:25:48;3.50;99.90
18141;DHT22;9196;49.194;12.526;2024-02-14T08:28:15;3.60;99.90
18141;DHT22;9196;49.194;12.526;2024-02-14T08:30:44;3.70;99.90
18141;DHT22;9196;49.194;12.526;2024-02-14T08:33:11;3.70;99.90
18141;DHT22;9196;49.194;12.526;2024-02-14T08:35:38;3.90;99.90
18141;DHT22;9196;49.194;12.526;2024-02-14T08:38:05;4.00;99.90
18141;DHT22;9196;49.194;12.526;2024-02-14T08:40:32;4.00;99.90
18141;DHT22;9196;49.194;12.526;2024-02-14T08:43:00;4.10;99.90
18141;DHT22;9196;49.194;12.526;2024-02-14T08:45:28;4.20;99.90
18141;DHT22;9196;49.194;12.526;2024-02-14T08:47:55;4.30;99.90
18141;DHT22;9196;49.194;12.526;2024-02-14T08:50:22;4.40;99.90
18141;DHT22;9196;49.194;12.526;2024-02-14T08:52:49;4.50;99.90
18141;DHT22;9196;49.194;12.526;2024-02-14T08:55:16;4.70;99.90
18141;DHT22;9196;49.194;12.526;2024-02-14T08:57:44;4.90;99.90
18141;DHT22;9196;49.194;12.526;2024-02-14T09:00:15;4.80;99.90
18141;DHT22;9196;49.194;12.526;2024-02-14T09:02:45;4.90;99.90
18141;DHT22;9196;49.194;12.526;2024-02-14T09:05:12;5.00;99.90
18141;DHT22;9196;49.194;12.526;2024-02-14T09:07:39;5.20;99.90
18141;DHT22;9196;49.194;12.526;2024-02-14T09:10:07;5.40;99.90
18141;DHT22;9196;49.194;12.526;2024-02-14T09:12:49;5.50;99.90
18141;DHT22;9196;49.194;12.526;2024-02-14T09:15:33;5.60;99.90
18141;DHT22;9196;49.194;12.526;2024-02-14T09:18:13;5.70;99.90
18141;DHT22;9196;49.194;12.526;2024-02-14T09:20:44;5.70;99.90
18141;DHT22;9196;49.194;12.526;2024-02-14T09:23:12;5.70;99.90
18141;DHT22;9196;49.194;12.526;2024-02-14T09:25:42;5.80;99.90
18141;DHT22;9196;49.194;12.526;2024-02-14T09:28:09;5.80;99.90
18141;DHT22;9196;49.194;12.526;2024-02-14T09:30:38;5.90;99.90
18141;DHT22;9196;49.194;12.526;2024-02-14T09:33:05;5.90;99.90
18141;DHT22;9196;49.194;12.526;2024-02-14T09:35:32;6.00;99.90
18141;DHT22;9196;49.194;12.526;2024-02-14T09:37:58;5.90;99.90
18141;DHT22;9196;49.194;12.526;2024-02-14T09:40:25;5.90;99.90
18141;DHT22;9196;49.194;12.526;2024-02-14T09:42:54;5.90;99.90
18141;DHT22;9196;49.194;12.526;2024-02-14T09:45:25;5.90;99.90
18141;DHT22;9196;49.194;12.526;2024-02-14T09:47:53;5.80;99.90
18141;DHT22;9196;49.194;12.526;2024-02-14T09:50:20;5.90;99.90
18141;DHT22;9196;49.194;12.526;2024-02-14T09:52:47;5.90;99.90
18141;DHT22;9196;49.194;12.526;2024-02-14T09:55:15;5.90;99.90
18141;DHT22;9196;49.194;12.526;2024-02-14T09:57:43;6.00;99.90
18141;DHT22;9196;49.194;12.526;2024-02-14T10:00:10;6.00;99.90
18141;DHT22;9196;49.194;12.526;2024-02-14T10:02:40;6.10;99.90
18141;DHT22;9196;49.194;12.526;2024-02-14T10:05:09;6.10;99.90
18141;DHT22;9196;49.194;12.526;2024-02-14T10:07:50;6.20;99.90
18141;DHT22;9196;49.194;12.526;2024-02-14T10:10:17;6.30;99.90
18141;DHT22;9196;49.194;12.526;2024-02-14T10:12:58;6.40;99.90
18141;DHT22;9196;49.194;12.526;2024-02-14T10:15:38;6.40;99.90
18141;DHT22;9196;49.194;12.526;2024-02-14T10:18:09;6.40;99.90
18141;DHT22;9196;49.194;12.526;2024-02-14T10:20:56;6.50;99.90
18141;DHT22;9196;49.194;12.526;2024-02-14T10:23:24;6.50;99.90
18141;DHT22;9196;49.194;12.526;2024-02-14T10:25:53;6.60;99.90
18141;DHT22;9196;49.194;12.526;2024-02-14T10:28:28;6.60;99.90
18141;DHT22;9196;49.194;12.526;2024-02-14T10:30:56;6.50;99.90
18141;DHT22;9196;49.194;12.526;2024-02-14T10:33:23;6.70;99.90
18141;DHT22;9196;49.194;12.526;2024-02-14T10:35:52;6.60;99.90
18141;DHT22;9196;49.194;12.526;2024-02-14T10:38:31;6.60;99.90
18141;DHT22;9196;49.194;12.526;2024-02-14T10:41:00;6.60;99.90
18141;DHT22;9196;49.194;12.526;2024-02-14T10:43:27;6.70;99.90
18141;DHT22;9196;49.194;12.526;2024-02-14T10:45:55;6.70;99.90
18141;DHT22;9196;49.194;12.526;2024-02-14T10:48:24;6.80;99.90
18141;DHT22;9196;49.194;12.526;2024-02-14T10:50:54;6.80;99.90
18141;DHT22;9196;49.194;12.526;2024-02-14T10:53:23;6.80;99.90
18141;DHT22;9196;49.194;12.526;2024-02-14T10:56:08;6.80;99.90
18141;DHT22;9196;49.194;12.526;2024-02-14T10:58:51;6.90;99.90
18141;DHT22;9196;49.194;12.526;2024-02-14T11:01:37;6.80;99.90
18141;DHT22;9196;49.194;12.526;2024-02-14T11:04:18;6.80;99.90
18141;DHT22;9196;49.194;12.526;2024-02-14T11:06:48;6.80;99.90
18141;DHT22;9196;49.194;12.526;2024-02-14T11:09:18;6.80;99.90
18141;DHT22;9196;49.194;12.526;2024-02-14T11:11:47;6.80;99.90
18141;DHT22;9196;49.194;12.526;2024-02-14T11:14:15;6.80;99.90
18141;DHT22;9196;49.194;12.526;2024-02-14T11:16:45;6.90;99.90
18141;DHT22;9196;49.194;12.526;2024-02-14T11:19:13;6.90;99.90
18141;DHT22;9196;49.194;12.526;2024-02-14T11:21:42;6.90;99.90
18141;DHT22;9196;49.194;12.526;2024-02-14T11:24:27;7.00;99.90
18141;DHT22;9196;49.194;12.526;2024-02-14T11:26:57;7.10;99.90
18141;DHT22;9196;49.194;12.526;2024-02-14T11:29:29;7.00;99.90
18141;DHT22;9196;49.194;12.526;2024-02-14T11:32:11;6.90;99.90
18141;DHT22;9196;49.194;12.526;2024-02-14T11:34:39;7.00;99.90
18141;DHT22;9196;49.194;12.526;2024-02-14T11:37:06;7.10;99.90
18141;DHT22;9196;49.194;12.526;2024-02-14T11:39:47;7.10;99.90
18141;DHT22;9196;49.194;12.526;2024-02-14T11:42:16;7.00;99.90
18141;DHT22;9196;49.194;12.526;2024-02-14T11:44:46;7.00;99.90
18141;DHT22;9196;49.194;12.526;2024-02-14T11:47:13;7.00;99.90
18141;DHT22;9196;49.194;12.526;2024-02-14T11:49:41;7.10;99.90
18141;DHT22;9196;49.194;12.526;2024-02-14T11:52:10;7.10;99.90
18141;DHT22;9196;49.194;12.526;2024-02-14T11:54:47;7.30;99.90
18141;DHT22;9196;49.194;12.526;2024-02-14T11:57:53;7.20;99.90
18141;DHT22;9196;49.194;12.526;2024-02-14T12:00:21;7.20;99.90
18141;DHT22;9196;49.194;12.526;2024-02-14T12:03:02;7.00;99.90
18141;DHT22;9196;49.194;12.526;2024-02-14T12:05:31;7.00;99.90
18141;DHT22;9196;49.194;12.526;2024-02-14T12:08:18;7.10;99.90
18141;DHT22;9196;49.194;12.526;2024-02-14T12:10:45;7.10;99.90
18141;DHT22;9196;49.194;12.526;2024-02-14T12:13:20;7.20;99.90
18141;DHT22;9196;49.194;12.526;2024-02-14T12:15:51;7.20;99.90
18141;DHT22;9196;49.194;12.526;2024-02-14T12:18:21;7.10;99.90
18141;DHT22;9196;49.194;12.526;2024-02-14T12:20:49;7.10;99.90
18141;DHT22;9196;49.194;12.526;2024-02-14T12:23:25;7.10;99.90
18141;DHT22;9196;49.194;12.526;2024-02-14T12:25:52;7.20;99.90
18141;DHT22;9196;49.194;12.526;2024-02-14T12:28:26;7.20;99.90
18141;DHT22;9196;49.194;12.526;2024-02-14T12:31:06;7.20;99.90
18141;DHT22;9196;49.194;12.526;2024-02-14T12:33:33;7.20;99.90
18141;DHT22;9196;49.194;12.526;2024-02-14T12:36:14;7.20;99.90
18141;DHT22;9196;49.194;12.526;2024-02-14T12:38:45;7.30;99.90
18141;DHT22;9196;49.194;12.526;2024-02-14T12:41:14;7.30;99.90
18141;DHT22;9196;49.194;12.526;2024-02-14T12:43:42;7.40;99.90
18141;DHT22;9196;49.194;12.526;2024-02-14T12:46:09;7.40;99.90
18141;DHT22;9196;49.194;12.526;2024-02-14T12:48:36;7.40;99.90
18141;DHT22;9196;49.194;12.526;2024-02-14T12:51:04;7.40;99.90
18141;DHT22;9196;49.194;12.526;2024-02-14T12:53:31;7.40;99.90
18141;DHT22;9196;49.194;12.526;2024-02-14T12:55:58;7.40;99.90
18141;DHT22;9196;49.194;12.526;2024-02-14T12:58:25;7.50;99.90
18141;DHT22;9196;49.194;12.526;2024-02-14T13:00:55;7.50;99.90
18141;DHT22;9196;49.194;12.526;2024-02-14T13:03:22;7.60;99.90
18141;DHT22;9196;49.194;12.526;2024-02-14T13:05:49;7.60;99.90
18141;DHT22;9196;49.194;12.526;2024-02-14T13:08:19;7.60;99.90
18141;DHT22;9196;49.194;12.526;2024-02-14T13:10:46;7.70;99.90
18141;DHT22;9196;49.194;12.526;2024-02-14T13:13:17;7.70;99.90
18141;DHT22;9196;49.194;12.526;2024-02-14T13:15:44;7.80;99.90
18141;DHT22;9196;49.194;12.526;2024-02-14T13:18:13;7.90;99.90
18141;DHT22;9196;49.194;12.526;2024-02-14T13:20:41;8.10;99.90
18141;DHT22;9196;49.194;12.526;2024-02-14T13:23:10;8.10;99.90
18141;DHT22;9196;49.194;12.526;2024-02-14T13:25:45;8.10;99.90
18141;DHT22;9196;49.194;12.526;2024-02-14T13:28:12;8.10;99.90
18141;DHT22;9196;49.194;12.526;2024-02-14T13:30:39;8.20;99.90
18141;DHT22;9196;49.194;12.526;2024-02-14T13:33:06;8.40;99.90
18141;DHT22;9196;49.194;12.526;2024-02-14T13:35:36;8.50;99.90
18141;DHT22;9196;49.194;12.526;2024-02-14T13:38:05;8.80;99.90
18141;DHT22;9196;49.194;12.526;2024-02-14T13:40:32;9.30;99.90
18141;DHT22;9196;49.194;12.526;2024-02-14T13:42:59;9.70;99.90
18141;DHT22;9196;49.194;12.526;2024-02-14T13:45:30;9.80;99.90
18141;DHT22;9196;49.194;12.526;2024-02-14T13:48:06;9.80;99.90
18141;DHT22;9196;49.194;12.526;2024-02-14T13:50:34;9.60;99.90
18141;DHT22;9196;49.194;12.526;2024-02-14T13:53:02;9.50;99.90
18141;DHT22;9196;49.194;12.526;2024-02-14T13:55:30;9.40;99.90
18141;DHT22;9196;49.194;12.526;2024-02-14T13:58:01;9.30;99.90
18141;DHT22;9196;49.194;12.526;2024-02-14T14:00:28;9.30;99.90
18141;DHT22;9196;49.194;12.526;2024-02-14T14:02:59;9.30;99.90
18141;DHT22;9196;49.194;12.526;2024-02-14T14:05:40;9.30;99.90
18141;DHT22;9196;49.194;12.526;2024-02-14T14:08:08;9.30;99.90
18141;DHT22;9196;49.194;12.526;2024-02-14T14:10:35;9.30;99.90
18141;DHT22;9196;49.194;12.526;2024-02-14T14:13:04;9.30;99.90
18141;DHT22;9196;49.194;12.526;2024-02-14T14:15:32;9.40;99.90
18141;DHT22;9196;49.194;12.526;2024-02-14T14:17:59;9.50;99.90
18141;DHT22;9196;49.194;12.526;2024-02-14T14:20:25;9.60;99.90
18141;DHT22;9196;49.194;12.526;2024-02-14T14:22:53;9.70;99.90
18141;DHT22;9196;49.194;12.526;2024-02-14T14:25:21;9.70;99.90
18141;DHT22;9196;49.194;12.526;2024-02-14T14:27:47;9.70;99.90
18141;DHT22;9196;49.194;12.526;2024-02-14T14:30:14;9.70;99.90
18141;DHT22;9196;49.194;12.526;2024-02-14T14:32:41;9.70;99.90
18141;DHT22;9196;49.194;12.526;2024-02-14T14:35:08;9.60;99.90
18141;DHT22;9196;49.194;12.526;2024-02-14T14:37:35;9.60;99.90
18141;DHT22;9196;49.194;12.526;2024-02-14T14:40:02;9.60;99.90
18141;DHT22;9196;49.194;12.526;2024-02-14T14:42:32;9.60;99.90
18141;DHT22;9196;49.194;12.526;2024-02-14T14:44:57;9.50;99.90
18141;DHT22;9196;49.194;12.526;2024-02-14T14:47:25;9.60;99.90
18141;DHT22;9196;49.194;12.526;2024-02-14T14:49:51;9.60;99.90
18141;DHT22;9196;49.194;12.526;2024-02-14T14:52:18;9.70;99.90
18141;DHT22;9196;49.194;12.526;2024-02-14T14:54:45;9.70;99.90
18141;DHT22;9196;49.194;12.526;2024-02-14T14:57:12;9.80;99.90
18141;DHT22;9196;49.194;12.526;2024-02-14T14:59:42;9.80;99.90
18141;DHT22;9196;49.194;12.526;2024-02-14T15:02:09;9.80;99.90
18141;DHT22;9196;49.194;12.526;2024-02-14T15:04:36;9.80;99.90
18141;DHT22;9196;49.194;12.526;2024-02-14T15:07:05;9.80;99.90
18141;DHT22;9196;49.194;12.526;2024-02-14T15:09:32;9.80;99.90
18141;DHT22;9196;49.194;12.526;2024-02-14T15:11:59;9.70;99.90
18141;DHT22;9196;49.194;12.526;2024-02-14T15:14:25;9.60;99.90
18141;DHT22;9196;49.194;12.526;2024-02-14T15:16:53;9.60;99.90
18141;DHT22;9196;49.194;12.526;2024-02-14T15:19:20;9.60;99.90
18141;DHT22;9196;49.194;12.526;2024-02-14T15:21:49;9.60;99.90
18141;DHT22;9196;49.194;12.526;2024-02-14T15:24:16;9.50;99.90
18141;DHT22;9196;49.194;12.526;2024-02-14T15:26:42;9.50;99.90
18141;DHT22;9196;49.194;12.526;2024-02-14T15:29:16;9.40;99.90
18141;DHT22;9196;49.194;12.526;2024-02-14T15:32:02;9.50;99.90
18141;DHT22;9196;49.194;12.526;2024-02-14T15:34:47;9.50;99.90
18141;DHT22;9196;49.194;12.526;2024-02-14T15:37:14;9.50;99.90
18141;DHT22;9196;49.194;12.526;2024-02-14T15:39:43;9.50;99.90
18141;DHT22;9196;49.194;12.526;2024-02-14T15:42:09;9.40;99.90
18141;DHT22;9196;49.194;12.526;2024-02-14T15:44:37;9.40;99.90
18141;DHT22;9196;49.194;12.526;2024-02-14T15:47:06;9.50;99.90
18141;DHT22;9196;49.194;12.526;2024-02-14T15:49:33;9.40;99.90
18141;DHT22;9196;49.194;12.526;2024-02-14T15:52:00;9.40;99.90
18141;DHT22;9196;49.194;12.526;2024-02-14T15:54:27;9.30;99.90